Veblen, South Dakota
Current Conditions -  °F | °C
As of 7:55 AM on Monday 24 Nov 2014 (Local Time) from KGWR Reporting Station
Broken Clouds Broken Clouds  
Wind Chill: -5°   Ceiling: 2900
Heat Index: 14°   Visibility: 10mi
Dew Point:   Wind: 23mph
Humidity: 67%   Direction: 340°NNW
Pressure: 29.7"   Gusts: NA
Location:  45.86°N, 97.29°W
Report Text: KGWR 241355Z AUTO 34020KT 10SM FEW012 SCT019 BKN029 M10/M15 A2970 RMK A01 P000
Loading
Personal Weather Stations






























Interactive Weather Map New forecast layout! Learn more

10-Day Weather Forecast

Advertisements
Track Severe Weather on mobile